Time;durP1;ratioP1;P1;durP2;ratioP2;P2;SDS_P1;SDS_P2;PMS_P1;PMS_P2;Temp;Humidity;BMP_temperature;BMP_pressure;BME280_temperature;BME280_humidity;BME280_pressure;Samples;Min_cycle;Max_cycle;Signal;HPM_P1;HPM_P2
2023/06/16 00:00:32;;;;;;;10.10;7.60;;;17.70;1.00;;;;;;5095518;28;20453;-66
2023/06/16 00:02:59;;;;;;;9.63;6.30;;;17.80;99.90;;;;;;5095653;28;20498;-66
2023/06/16 00:05:26;;;;;;;10.50;7.20;;;17.80;99.90;;;;;;5095717;28;20457;-66
2023/06/16 00:07:53;;;;;;;7.80;7.10;;;17.80;99.90;;;;;;5095424;28;20544;-66
2023/06/16 00:10:20;;;;;;;7.30;6.60;;;17.80;99.90;;;;;;5095358;28;20510;-66
2023/06/16 00:12:50;;;;;;;9.00;7.63;;;17.80;1.00;;;;;;5095357;28;20473;-66
2023/06/16 00:15:17;;;;;;;8.37;7.57;;;17.70;1.00;;;;;;5095597;28;20489;-66
2023/06/16 00:17:46;;;;;;;12.73;8.13;;;17.70;1.00;;;;;;5095343;28;20488;-66
2023/06/16 00:20:14;;;;;;;8.23;7.43;;;17.70;27.90;;;;;;5095060;28;20862;-66
2023/06/16 00:22:41;;;;;;;9.33;7.60;;;17.70;1.00;;;;;;5095014;28;20457;-66
2023/06/16 00:25:08;;;;;;;9.10;8.20;;;17.70;17.00;;;;;;5094945;28;20536;-66
2023/06/16 00:27:35;;;;;;;10.40;7.47;;;17.70;67.00;;;;;;5094462;28;20445;-66
2023/06/16 00:30:04;;;;;;;7.37;6.67;;;17.70;19.30;;;;;;5095288;28;20453;-66
2023/06/16 00:32:31;;;;;;;10.20;7.60;;;17.70;15.10;;;;;;5094828;28;20985;-66
2023/06/16 00:34:58;;;;;;;7.90;6.93;;;17.60;1.00;;;;;;5094904;28;20449;-66
2023/06/16 00:37:25;;;;;;;8.90;7.27;;;17.50;99.90;;;;;;5094889;28;20496;-66
2023/06/16 00:39:52;;;;;;;7.70;6.87;;;17.40;99.90;;;;;;5094862;28;20463;-66
2023/06/16 00:42:18;;;;;;;8.00;7.20;;;17.30;99.90;;;;;;5094705;28;20548;-66
2023/06/16 00:44:45;;;;;;;8.43;7.63;;;17.20;99.90;;;;;;5094925;28;20453;-66
2023/06/16 00:47:14;;;;;;;9.50;8.10;;;17.10;1.00;;;;;;5094820;28;20453;-66
2023/06/16 00:49:41;;;;;;;9.43;7.03;;;17.10;1.00;;;;;;5095202;28;20457;-66
2023/06/16 00:52:10;;;;;;;8.23;7.53;;;17.10;1.00;;;;;;5094589;28;20457;-66
2023/06/16 00:54:37;;;;;;;7.73;7.03;;;17.10;1.00;;;;;;5094699;28;20602;-66
2023/06/16 00:57:06;;;;;;;9.17;7.60;;;17.00;1.00;;;;;;5094324;28;20457;-66
2023/06/16 00:59:34;;;;;;;8.63;7.47;;;17.00;1.00;;;;;;5094587;28;20820;-66
2023/06/16 01:02:00;;;;;;;9.47;7.83;;;17.00;1.00;;;;;;5094280;28;20937;-66
2023/06/16 01:04:29;;;;;;;8.30;7.40;;;17.00;1.00;;;;;;5094583;28;20454;-66
2023/06/16 01:07:05;;;;;;;10.20;7.70;;;17.00;1.00;;;;;;5094564;28;20480;-66
2023/06/16 01:09:40;;;;;;;8.73;7.83;;;17.00;1.00;;;;;;5094795;28;20437;-66
2023/06/16 01:12:16;;;;;;;9.03;7.73;;;16.90;1.00;;;;;;5094442;28;20579;-66
2023/06/16 01:14:56;;;;;;;8.90;8.10;;;16.90;1.00;;;;;;5094415;28;20524;-66
2023/06/16 01:17:24;;;;;;;7.60;6.90;;;16.80;1.00;;;;;;5094333;28;20767;-66
2023/06/16 01:20:07;;;;;;;8.73;7.90;;;16.80;1.00;;;;;;5094408;28;20783;-66
2023/06/16 01:22:57;;;;;;;8.63;7.27;;;16.70;1.00;;;;;;5094192;28;20437;-66
2023/06/16 01:25:30;;;;;;;9.43;6.93;;;16.70;1.00;;;;;;5094049;28;20438;-66
2023/06/16 01:28:00;;;;;;;7.83;7.13;;;16.70;1.00;;;;;;5093971;28;20850;-66
2023/06/16 01:30:30;;;;;;;10.20;7.60;;;16.70;1.00;;;;;;5094359;28;20449;-66
2023/06/16 01:32:58;;;;;;;8.67;7.80;;;16.70;1.00;;;;;;5094008;28;20548;-66
2023/06/16 01:35:25;;;;;;;8.17;7.37;;;16.80;1.00;;;;;;5093893;28;20453;-66
2023/06/16 01:37:54;;;;;;;7.90;7.20;;;16.80;1.00;;;;;;5093814;28;20495;-66
2023/06/16 01:40:22;;;;;;;8.30;7.47;;;16.80;1.00;;;;;;5093841;28;20450;-66
2023/06/16 01:42:51;;;;;;;7.77;6.40;;;16.80;1.00;;;;;;5094132;28;20467;-66
2023/06/16 01:45:19;;;;;;;7.60;6.80;;;16.80;1.00;;;;;;5094077;28;20457;-66
2023/06/16 01:47:47;;;;;;;6.90;6.10;;;16.80;1.00;;;;;;5093731;28;20540;-66
2023/06/16 01:50:14;;;;;;;7.07;6.47;;;16.70;99.90;;;;;;5094174;28;20454;-66
2023/06/16 01:52:41;;;;;;;8.57;6.90;;;16.70;99.90;;;;;;5094148;28;20759;-66
2023/06/16 01:55:09;;;;;;;9.13;6.07;;;16.60;99.90;;;;;;5093963;28;20453;-66
2023/06/16 01:57:36;;;;;;;10.10;5.97;;;16.70;99.90;;;;;;5093628;28;20468;-66
2023/06/16 02:00:13;;;;;;;7.30;6.50;;;16.60;88.90;;;;;;5093929;28;20453;-66
2023/06/16 02:02:46;;;;;;;8.43;6.23;;;16.60;1.00;;;;;;5093928;28;20480;-66
2023/06/16 02:05:15;;;;;;;9.60;6.33;;;16.60;1.00;;;;;;5094097;28;20558;-66
2023/06/16 02:07:45;;;;;;;6.20;5.60;;;16.60;1.00;;;;;;5093845;28;20449;-66
2023/06/16 02:10:13;;;;;;;7.03;6.33;;;16.50;1.00;;;;;;5093426;28;20468;-66
2023/06/16 02:12:40;;;;;;;8.40;6.30;;;16.50;1.00;;;;;;5093675;28;20481;-66
2023/06/16 02:15:10;;;;;;;8.20;7.43;;;16.50;1.00;;;;;;5093888;28;20453;-66
2023/06/16 02:17:37;;;;;;;6.67;6.00;;;16.50;1.00;;;;;;5093609;28;20985;-66
2023/06/16 02:20:06;;;;;;;7.90;6.53;;;16.50;1.00;;;;;;5093483;28;20553;-66
2023/06/16 02:22:33;;;;;;;7.30;6.60;;;16.50;1.00;;;;;;5093715;28;20458;-66
2023/06/16 02:25:00;;;;;;;8.73;6.60;;;16.50;1.00;;;;;;5093840;28;20465;-66
2023/06/16 02:27:27;;;;;;;9.50;5.40;;;16.50;1.00;;;;;;5093372;28;20484;-66
2023/06/16 02:29:54;;;;;;;9.80;7.10;;;16.50;1.00;;;;;;5093877;28;20460;-66
2023/06/16 02:32:22;;;;;;;10.37;6.37;;;16.50;99.90;;;;;;5093716;28;20457;-66
2023/06/16 02:34:52;;;;;;;7.93;6.50;;;16.50;1.00;;;;;;5093672;28;20463;-66
2023/06/16 02:37:19;;;;;;;10.30;6.70;;;16.50;1.00;;;;;;5093847;28;20529;-66
2023/06/16 02:39:46;;;;;;;9.87;6.97;;;16.50;1.00;;;;;;5093373;28;20581;-66
2023/06/16 02:42:13;;;;;;;9.23;7.00;;;16.50;1.00;;;;;;5093233;28;20449;-66
2023/06/16 02:44:39;;;;;;;7.13;6.33;;;16.50;1.00;;;;;;5093195;28;20493;-66
2023/06/16 02:47:06;;;;;;;9.60;8.60;;;16.50;1.00;;;;;;5093048;28;20787;-66
2023/06/16 02:49:35;;;;;;;10.00;7.97;;;16.40;1.00;;;;;;5094582;28;20460;-66
2023/06/16 02:52:01;;;;;;;11.60;8.20;;;16.40;1.00;;;;;;5096504;28;20457;-66
2023/06/16 02:54:28;;;;;;;12.10;7.80;;;16.30;99.90;;;;;;5096872;28;20457;-66
2023/06/16 02:56:55;;;;;;;9.40;7.67;;;16.30;99.90;;;;;;5096841;28;20471;-66
2023/06/16 02:59:22;;;;;;;10.50;7.47;;;16.40;99.90;;;;;;5096867;28;20481;-66
2023/06/16 03:01:49;;;;;;;9.30;7.80;;;16.40;99.90;;;;;;5096723;28;20459;-66
2023/06/16 03:04:17;;;;;;;9.20;7.27;;;16.40;99.90;;;;;;5096912;28;20548;-65
2023/06/16 03:06:46;;;;;;;12.87;8.00;;;16.40;99.90;;;;;;5096664;28;20457;-67
2023/06/16 03:09:14;;;;;;;11.03;8.03;;;16.40;99.90;;;;;;5096439;28;20460;-65
2023/06/16 03:11:41;;;;;;;10.27;7.67;;;16.50;99.90;;;;;;5096560;28;20497;-67
2023/06/16 03:14:08;;;;;;;8.30;7.40;;;16.50;99.90;;;;;;5097069;28;20804;-66
2023/06/16 03:16:35;;;;;;;17.77;9.30;;;16.50;99.90;;;;;;5096659;28;20547;-66
2023/06/16 03:19:02;;;;;;;12.23;8.50;;;16.50;99.90;;;;;;5096441;28;20478;-66
2023/06/16 03:21:28;;;;;;;9.50;8.60;;;16.50;99.90;;;;;;5096250;28;20548;-66
2023/06/16 03:23:57;;;;;;;11.83;8.70;;;16.50;99.90;;;;;;5096719;28;20479;-66
2023/06/16 03:26:24;;;;;;;11.10;8.53;;;16.60;99.90;;;;;;5096568;28;20457;-66
2023/06/16 03:28:51;;;;;;;9.27;8.37;;;16.60;99.90;;;;;;5096480;28;20453;-66
2023/06/16 03:31:19;;;;;;;14.73;9.37;;;16.60;99.90;;;;;;5096492;28;20463;-66
2023/06/16 03:33:46;;;;;;;9.50;8.60;;;16.60;99.90;;;;;;5096355;28;20460;-66
2023/06/16 03:36:13;;;;;;;8.80;7.90;;;16.60;99.90;;;;;;5096024;28;20539;-65
2023/06/16 03:38:39;;;;;;;10.03;8.80;;;16.50;99.90;;;;;;5096310;28;20481;-66
2023/06/16 03:41:07;;;;;;;9.70;8.73;;;16.50;99.90;;;;;;5096063;28;20548;-68
2023/06/16 03:43:34;;;;;;;9.80;8.90;;;16.50;99.90;;;;;;5096272;28;20457;-66
2023/06/16 03:46:01;;;;;;;8.90;8.00;;;16.50;99.90;;;;;;5095946;28;20453;-66
2023/06/16 03:48:28;;;;;;;10.87;8.40;;;16.50;99.90;;;;;;5096093;28;20449;-66
2023/06/16 03:50:55;;;;;;;10.10;9.10;;;16.50;99.90;;;;;;5095798;28;20457;-66
2023/06/16 03:53:21;;;;;;;11.43;9.80;;;16.50;99.90;;;;;;5096179;28;20457;-66
2023/06/16 03:55:48;;;;;;;10.90;9.80;;;16.50;99.90;;;;;;5096171;28;20789;-66
2023/06/16 03:58:17;;;;;;;11.20;10.13;;;16.50;99.90;;;;;;5096090;28;20468;-66
2023/06/16 04:00:44;;;;;;;10.60;8.93;;;16.50;99.90;;;;;;5095876;28;20467;-66
2023/06/16 04:03:11;;;;;;;10.00;8.77;;;16.50;99.90;;;;;;5096056;28;20472;-66
2023/06/16 04:05:38;;;;;;;11.90;10.80;;;16.50;99.90;;;;;;5095971;28;20858;-66
2023/06/16 04:08:06;;;;;;;10.30;9.07;;;16.60;99.90;;;;;;5095451;28;20468;-66
2023/06/16 04:10:33;;;;;;;12.07;9.77;;;16.50;99.90;;;;;;5095717;28;20820;-67
2023/06/16 04:13:00;;;;;;;10.53;9.57;;;16.50;99.90;;;;;;5095319;28;20974;-66
2023/06/16 04:15:28;;;;;;;11.00;9.90;;;16.50;99.90;;;;;;5095525;28;20922;-66
2023/06/16 04:17:55;;;;;;;11.53;10.43;;;16.50;99.90;;;;;;5095209;28;20463;-66
2023/06/16 04:20:22;;;;;;;11.23;10.00;;;16.50;99.90;;;;;;5095117;28;20477;-66
2023/06/16 04:22:49;;;;;;;12.17;11.07;;;16.50;99.90;;;;;;5095302;28;20528;-66
2023/06/16 04:25:17;;;;;;;11.37;10.20;;;16.50;99.90;;;;;;5095597;28;20463;-66
2023/06/16 04:27:46;;;;;;;11.07;9.90;;;16.60;99.90;;;;;;5095245;28;20463;-66
2023/06/16 04:30:13;;;;;;;10.87;9.87;;;16.60;1.00;;;;;;5095537;28;20459;-66
2023/06/16 04:32:44;;;;;;;11.37;10.23;;;16.60;1.00;;;;;;5095126;28;20463;-66
2023/06/16 04:35:11;;;;;;;11.03;10.03;;;16.60;1.00;;;;;;5094938;28;20457;-66
2023/06/16 04:37:38;;;;;;;10.63;9.63;;;16.60;99.90;;;;;;5095151;28;20490;-66
2023/06/16 04:40:08;;;;;;;10.47;9.53;;;16.60;99.90;;;;;;5095024;28;20503;-66
2023/06/16 04:42:34;;;;;;;10.60;9.50;;;16.60;99.90;;;;;;5094984;28;20828;-66
2023/06/16 04:45:02;;;;;;;13.70;9.17;;;16.60;99.90;;;;;;5094606;28;20462;-66
2023/06/16 04:47:28;;;;;;;14.30;9.33;;;16.50;99.90;;;;;;5094552;28;20453;-66
2023/06/16 04:49:56;;;;;;;11.13;9.90;;;16.50;99.90;;;;;;5094937;28;20556;-66
2023/06/16 04:52:24;;;;;;;10.47;9.37;;;16.60;99.90;;;;;;5094800;28;20496;-66
2023/06/16 04:54:51;;;;;;;10.37;8.97;;;16.50;99.90;;;;;;5094748;28;20911;-66
2023/06/16 04:57:18;;;;;;;11.17;9.57;;;16.50;99.90;;;;;;5094398;28;20460;-66
2023/06/16 04:59:45;;;;;;;9.33;8.43;;;16.60;99.90;;;;;;5094689;28;20477;-67
2023/06/16 05:02:12;;;;;;;11.20;9.90;;;16.60;1.00;;;;;;5094544;28;20918;-67
2023/06/16 05:04:43;;;;;;;10.03;9.13;;;16.60;1.00;;;;;;5094829;28;20453;-66
2023/06/16 05:07:11;;;;;;;10.13;8.80;;;16.60;1.00;;;;;;5094467;28;20452;-66
2023/06/16 05:09:39;;;;;;;14.03;10.10;;;16.60;1.00;;;;;;5094674;28;20560;-67
2023/06/16 05:12:07;;;;;;;11.20;9.73;;;16.60;1.00;;;;;;5093635;28;20481;-67
2023/06/16 05:14:33;;;;;;;10.97;9.90;;;16.60;1.00;;;;;;5094487;28;20480;-67
2023/06/16 05:17:00;;;;;;;27.33;21.63;;;16.60;1.00;;;;;;5094308;28;20454;-66
2023/06/16 05:19:28;;;;;;;10.40;9.30;;;16.70;1.00;;;;;;5094738;28;20860;-66
2023/06/16 05:21:55;;;;;;;9.33;8.50;;;16.60;1.00;;;;;;5094665;28;20896;-66
2023/06/16 05:24:23;;;;;;;10.23;9.00;;;16.60;1.00;;;;;;5094627;28;20457;-66
2023/06/16 05:26:50;;;;;;;15.53;8.70;;;16.70;99.90;;;;;;5094147;28;20940;-66
2023/06/16 05:29:16;;;;;;;10.00;9.10;;;16.60;1.00;;;;;;5094357;28;20450;-66
2023/06/16 05:31:43;;;;;;;9.07;8.10;;;16.70;1.00;;;;;;5094479;28;20459;-65
2023/06/16 05:34:10;;;;;;;9.90;9.00;;;16.70;1.00;;;;;;5094024;28;20623;-66
2023/06/16 05:36:37;;;;;;;9.70;8.80;;;16.60;1.00;;;;;;5093895;28;20464;-66
2023/06/16 05:39:04;;;;;;;10.57;8.50;;;16.60;1.00;;;;;;5094032;28;20568;-66
2023/06/16 05:41:33;;;;;;;9.67;8.77;;;16.70;1.00;;;;;;5094043;28;20458;-66
2023/06/16 05:44:00;;;;;;;10.27;8.80;;;16.70;1.00;;;;;;5094135;28;20464;-66
2023/06/16 05:46:27;;;;;;;9.13;8.27;;;16.70;1.00;;;;;;5094193;28;20458;-66
2023/06/16 05:48:55;;;;;;;9.00;7.43;;;16.70;1.00;;;;;;5094344;28;20453;-66
2023/06/16 05:51:23;;;;;;;9.30;8.40;;;16.70;1.00;;;;;;5094416;28;20928;-66
2023/06/16 05:53:50;;;;;;;9.77;8.87;;;16.60;99.90;;;;;;5093889;28;20461;-66
2023/06/16 05:56:17;;;;;;;10.07;9.07;;;16.60;99.90;;;;;;5094177;28;20457;-66
2023/06/16 05:58:45;;;;;;;8.03;7.33;;;16.60;1.00;;;;;;5093938;28;20789;-66
2023/06/16 06:01:13;;;;;;;7.70;7.00;;;16.60;1.00;;;;;;5093829;28;20463;-66
2023/06/16 06:03:44;;;;;;;10.20;7.70;;;16.70;1.00;;;;;;5094218;28;20506;-67
2023/06/16 06:06:12;;;;;;;10.60;8.10;;;16.70;1.00;;;;;;5093848;28;20441;-66
2023/06/16 06:08:40;;;;;;;9.87;8.87;;;16.70;1.00;;;;;;5093753;28;20490;-66
2023/06/16 06:11:07;;;;;;;9.10;8.30;;;16.60;1.00;;;;;;5093861;28;20926;-66
2023/06/16 06:13:34;;;;;;;9.50;8.60;;;16.60;1.00;;;;;;5093912;28;20496;-68
2023/06/16 06:16:03;;;;;;;8.40;7.50;;;16.70;1.00;;;;;;5093893;28;20554;-66
2023/06/16 06:18:30;;;;;;;7.80;7.00;;;16.70;1.00;;;;;;5094159;28;20452;-67
2023/06/16 06:21:02;;;;;;;8.17;7.30;;;16.60;1.00;;;;;;5094018;28;20496;-66
2023/06/16 06:23:28;;;;;;;7.97;7.23;;;16.60;1.00;;;;;;5094211;28;20486;-66
2023/06/16 06:25:55;;;;;;;9.20;7.33;;;16.60;1.00;;;;;;5097608;28;20454;-66
2023/06/16 06:28:24;;;;;;;8.47;7.67;;;16.60;1.00;;;;;;5097150;28;20460;-66
2023/06/16 06:30:51;;;;;;;8.50;7.70;;;16.60;1.00;;;;;;5097519;28;20453;-66
2023/06/16 06:33:19;;;;;;;9.30;7.03;;;16.60;1.00;;;;;;5097576;28;20457;-67
2023/06/16 06:35:46;;;;;;;8.57;7.50;;;16.60;1.00;;;;;;5097273;28;20469;-67
2023/06/16 06:38:13;;;;;;;9.07;8.10;;;16.60;1.00;;;;;;5097416;28;20779;-67
2023/06/16 06:40:40;;;;;;;10.47;9.47;;;16.60;1.00;;;;;;5097463;28;20473;-67
2023/06/16 06:43:06;;;;;;;9.70;8.73;;;16.50;1.00;;;;;;5097494;28;20457;-66
2023/06/16 06:45:33;;;;;;;13.00;8.80;;;16.60;1.00;;;;;;5097513;28;20467;-66
2023/06/16 06:48:00;;;;;;;10.63;9.70;;;16.60;1.00;;;;;;5097581;28;20497;-66
2023/06/16 06:50:28;;;;;;;8.73;8.03;;;16.60;1.00;;;;;;5097139;28;20449;-66
2023/06/16 06:52:55;;;;;;;10.70;8.93;;;16.50;1.00;;;;;;5097302;28;20557;-65
2023/06/16 06:55:22;;;;;;;8.80;8.00;;;16.50;1.00;;;;;;5097287;28;20854;-66
2023/06/16 06:57:50;;;;;;;9.47;8.67;;;16.40;92.80;;;;;;5097109;28;20453;-66
2023/06/16 07:00:18;;;;;;;7.83;7.03;;;16.40;99.90;;;;;;5096795;28;20477;-66
2023/06/16 07:02:45;;;;;;;8.63;6.97;;;16.50;99.90;;;;;;5097091;28;20540;-66
2023/06/16 07:05:11;;;;;;;12.67;10.40;;;16.50;99.90;;;;;;5097481;28;20453;-67
2023/06/16 07:07:40;;;;;;;8.80;7.90;;;16.50;99.90;;;;;;5096755;28;20453;-66
2023/06/16 07:10:08;;;;;;;7.33;6.73;;;16.60;99.90;;;;;;5096783;28;20449;-66
2023/06/16 07:12:34;;;;;;;8.30;7.43;;;16.60;99.90;;;;;;5096905;28;21007;-66
2023/06/16 07:15:01;;;;;;;8.50;7.80;;;16.60;99.90;;;;;;5096527;28;20512;-66
2023/06/16 07:17:30;;;;;;;8.87;7.97;;;16.60;99.90;;;;;;5096703;28;20454;-66
2023/06/16 07:19:56;;;;;;;9.10;8.30;;;16.70;99.90;;;;;;5096513;28;20495;-66
2023/06/16 07:22:23;;;;;;;10.87;8.80;;;16.60;99.90;;;;;;5096604;28;20458;-66
2023/06/16 07:24:52;;;;;;;10.40;9.40;;;16.60;99.90;;;;;;5096799;28;20552;-66
2023/06/16 07:27:21;;;;;;;10.87;9.77;;;16.70;99.90;;;;;;5096745;28;20545;-66
2023/06/16 07:29:48;;;;;;;9.53;8.63;;;16.70;99.90;;;;;;5096099;28;20532;-66
2023/06/16 07:32:14;;;;;;;10.80;9.77;;;16.70;99.90;;;;;;5096606;28;20907;-66
2023/06/16 07:34:41;;;;;;;11.13;10.07;;;16.80;99.90;;;;;;5095683;28;20906;-66
2023/06/16 07:37:08;;;;;;;10.63;9.63;;;16.90;99.90;;;;;;5095738;28;20467;-66
2023/06/16 07:39:35;;;;;;;10.03;9.17;;;16.90;99.90;;;;;;5096124;28;20798;-67
2023/06/16 07:42:04;;;;;;;11.87;9.10;;;17.00;89.50;;;;;;5095981;28;20575;-65
2023/06/16 07:44:31;;;;;;;11.70;10.50;;;17.00;99.90;;;;;;5096158;28;20488;-67
2023/06/16 07:46:57;;;;;;;12.13;10.93;;;16.90;99.90;;;;;;5096150;28;20467;-65
2023/06/16 07:49:24;;;;;;;12.03;9.90;;;17.00;99.90;;;;;;5096011;28;20833;-65
2023/06/16 07:51:51;;;;;;;11.50;10.40;;;17.10;99.90;;;;;;5096126;28;20457;-65
2023/06/16 07:54:18;;;;;;;21.60;19.33;;;17.20;99.90;;;;;;5095867;28;20548;-65
2023/06/16 07:56:45;;;;;;;12.80;11.40;;;17.40;99.90;;;;;;5095870;28;20488;-65
2023/06/16 07:59:13;;;;;;;11.83;10.63;;;17.50;1.00;;;;;;5095069;28;20453;-65
2023/06/16 08:01:42;;;;;;;10.60;8.57;;;17.70;1.00;;;;;;5095227;28;20481;-65
2023/06/16 08:04:09;;;;;;;10.10;9.10;;;17.80;1.00;;;;;;5095209;28;20489;-65
2023/06/16 08:06:36;;;;;;;10.57;9.57;;;17.90;1.00;;;;;;5095631;28;20453;-65
2023/06/16 08:09:03;;;;;;;11.00;9.90;;;18.00;1.00;;;;;;5095650;28;20797;-66
2023/06/16 08:11:30;;;;;;;9.33;8.43;;;18.10;1.00;;;;;;5094653;28;20563;-66
2023/06/16 08:13:57;;;;;;;12.47;11.23;;;18.20;1.00;;;;;;5095074;28;20448;-66
2023/06/16 08:16:25;;;;;;;9.10;8.30;;;18.30;99.90;;;;;;5095277;28;20487;-66
2023/06/16 08:18:56;;;;;;;9.47;8.60;;;18.40;99.90;;;;;;5095062;28;20453;-66
2023/06/16 08:21:23;;;;;;;8.50;7.70;;;18.50;99.90;;;;;;5094750;28;20475;-66
2023/06/16 08:23:50;;;;;;;8.30;7.60;;;18.70;1.00;;;;;;5094851;28;20556;-66
2023/06/16 08:26:18;;;;;;;8.03;7.23;;;18.80;44.90;;;;;;5094495;28;20468;-66
2023/06/16 08:28:45;;;;;;;9.10;8.20;;;18.80;15.50;;;;;;5094492;28;20455;-66
2023/06/16 08:31:12;;;;;;;8.30;6.90;;;18.80;99.90;;;;;;5094599;28;20544;-66
2023/06/16 08:33:40;;;;;;;9.23;7.13;;;18.50;99.90;;;;;;5094922;28;20530;-66
2023/06/16 08:36:07;;;;;;;7.23;6.00;;;18.40;1.00;;;;;;5094758;28;20544;-66
2023/06/16 08:38:34;;;;;;;6.57;6.07;;;18.20;99.90;;;;;;5095054;28;20468;-66
2023/06/16 08:41:05;;;;;;;8.40;6.57;;;18.00;99.90;;;;;;5095113;28;20782;-66
2023/06/16 08:43:36;;;;;;;6.57;5.97;;;17.80;1.00;;;;;;5094996;28;20441;-66
2023/06/16 08:46:05;;;;;;;7.00;6.40;;;17.50;1.00;;;;;;5095099;28;20437;-66
2023/06/16 08:48:34;;;;;;;6.17;5.30;;;17.40;1.00;;;;;;5094266;28;20457;-66
2023/06/16 08:51:03;;;;;;;6.23;5.73;;;17.20;99.90;;;;;;5094762;28;20567;-66
2023/06/16 08:53:33;;;;;;;7.07;5.57;;;17.10;99.90;;;;;;5094760;28;20458;-66
2023/06/16 08:56:02;;;;;;;6.43;4.77;;;17.00;99.90;;;;;;5094633;28;20453;-66
2023/06/16 08:58:30;;;;;;;6.83;6.13;;;17.00;99.90;;;;;;5094715;28;20457;-66
2023/06/16 09:00:58;;;;;;;11.67;5.17;;;16.90;99.90;;;;;;5094008;28;20473;-66
2023/06/16 09:03:25;;;;;;;4.77;4.30;;;16.90;99.90;;;;;;5094713;28;20449;-66
2023/06/16 09:05:52;;;;;;;7.97;7.17;;;17.00;99.90;;;;;;5094609;28;20453;-66
2023/06/16 09:08:21;;;;;;;5.43;4.93;;;17.00;99.90;;;;;;5094602;28;20482;-66
2023/06/16 09:10:50;;;;;;;5.80;4.67;;;17.10;99.90;;;;;;5094925;28;20479;-66
2023/06/16 09:13:19;;;;;;;5.03;4.20;;;17.10;99.90;;;;;;5094122;28;20492;-66
2023/06/16 09:15:47;;;;;;;6.40;4.60;;;17.20;99.90;;;;;;5094678;28;20515;-66
2023/06/16 09:18:15;;;;;;;4.80;4.40;;;17.30;99.90;;;;;;5094401;28;20465;-66
2023/06/16 09:20:53;;;;;;;5.03;4.60;;;17.30;99.90;;;;;;5094490;28;20485;-66
2023/06/16 09:23:29;;;;;;;5.23;4.20;;;17.40;99.90;;;;;;5094333;28;20521;-66
2023/06/16 09:25:56;;;;;;;5.27;4.80;;;17.40;97.30;;;;;;5094404;28;20445;-66
2023/06/16 09:28:35;;;;;;;5.13;4.57;;;17.50;99.90;;;;;;5094021;28;20457;-66
2023/06/16 09:31:04;;;;;;;5.00;4.50;;;17.50;99.90;;;;;;5093863;28;20445;-66
2023/06/16 09:33:31;;;;;;;5.33;4.70;;;17.70;38.90;;;;;;5093937;28;20460;-66
2023/06/16 09:35:58;;;;;;;29.20;22.67;;;17.80;4.80;;;;;;5093954;28;20461;-66
2023/06/16 09:38:26;;;;;;;6.80;5.30;;;18.10;1.00;;;;;;5093917;28;20484;-66
2023/06/16 09:40:55;;;;;;;4.10;3.70;;;18.30;1.00;;;;;;5093621;28;20473;-66
2023/06/16 09:43:22;;;;;;;5.67;4.70;;;18.40;5.50;;;;;;5093684;28;20497;-66
2023/06/16 09:45:58;;;;;;;5.00;4.60;;;18.60;1.00;;;;;;5093385;28;20468;-66
2023/06/16 09:48:27;;;;;;;4.57;3.87;;;18.80;99.90;;;;;;5093580;28;20983;-66
2023/06/16 09:50:54;;;;;;;5.90;4.20;;;18.90;57.70;;;;;;5093856;28;20453;-66
2023/06/16 09:53:23;;;;;;;5.00;4.43;;;19.00;1.00;;;;;;5093549;28;20901;-66
2023/06/16 09:55:51;;;;;;;4.80;3.50;;;19.10;99.90;;;;;;5093894;28;20798;-66
2023/06/16 09:58:20;;;;;;;12.17;4.63;;;19.10;99.90;;;;;;5094953;28;20453;-66
2023/06/16 10:00:47;;;;;;;5.00;4.27;;;19.00;99.90;;;;;;5097731;28;20581;-66
2023/06/16 10:03:15;;;;;;;4.70;4.30;;;19.10;99.90;;;;;;5098282;28;20777;-67
2023/06/16 10:05:46;;;;;;;6.20;4.73;;;19.10;1.00;;;;;;5097781;28;20882;-66
2023/06/16 10:08:17;;;;;;;5.40;4.50;;;19.20;1.00;;;;;;5097796;28;20437;-66
2023/06/16 10:10:46;;;;;;;6.50;4.93;;;19.10;99.90;;;;;;5097490;28;20891;-66
2023/06/16 10:13:13;;;;;;;7.30;4.77;;;19.20;1.00;;;;;;5097548;28;20568;-66
2023/06/16 10:15:43;;;;;;;7.50;5.03;;;19.20;1.00;;;;;;5097481;28;20457;-66
2023/06/16 10:18:14;;;;;;;5.23;4.73;;;19.20;99.90;;;;;;5097666;28;20560;-66
2023/06/16 10:20:41;;;;;;;8.10;5.50;;;19.20;99.90;;;;;;5098184;28;20779;-66
2023/06/16 10:23:09;;;;;;;4.70;4.30;;;19.20;1.00;;;;;;5097199;28;20456;-66
2023/06/16 10:25:36;;;;;;;6.53;5.30;;;19.00;1.00;;;;;;5096823;28;20580;-66
2023/06/16 10:28:07;;;;;;;9.77;5.00;;;19.00;1.00;;;;;;5097318;28;20457;-66
2023/06/16 10:30:35;;;;;;;7.77;5.37;;;18.80;1.00;;;;;;5096885;28;20438;-66
2023/06/16 10:33:17;;;;;;;5.90;5.40;;;18.80;1.00;;;;;;5096789;28;20457;-66
2023/06/16 10:35:50;;;;;;;6.93;5.10;;;18.80;1.00;;;;;;5097150;28;20510;-66
2023/06/16 10:38:17;;;;;;;8.03;6.00;;;18.80;1.00;;;;;;5096599;28;20892;-66
2023/06/16 10:40:44;;;;;;;5.60;5.00;;;18.80;1.00;;;;;;5096452;28;20957;-66
2023/06/16 10:43:25;;;;;;;8.73;4.67;;;18.70;1.00;;;;;;5097061;28;20453;-66
2023/06/16 10:46:11;;;;;;;11.00;5.70;;;18.70;1.00;;;;;;5096454;28;20829;-67
2023/06/16 10:49:18;;;;;;;8.60;5.80;;;18.60;1.00;;;;;;5096753;28;20463;-67
2023/06/16 10:51:48;;;;;;;8.07;5.40;;;18.50;1.00;;;;;;5097153;28;20524;-67
2023/06/16 10:54:17;;;;;;;6.30;5.10;;;18.60;1.00;;;;;;5096923;28;20483;-65
2023/06/16 10:57:03;;;;;;;6.10;5.07;;;18.70;1.00;;;;;;5096846;28;20485;-66
2023/06/16 10:59:31;;;;;;;6.53;5.93;;;18.90;1.00;;;;;;5096961;28;20449;-66
2023/06/16 11:01:59;;;;;;;8.60;5.03;;;19.10;1.10;;;;;;5096484;28;20491;-66
2023/06/16 11:04:27;;;;;;;9.90;5.33;;;19.30;1.00;;;;;;5096629;28;20484;-66
2023/06/16 11:07:11;;;;;;;7.77;5.27;;;19.40;99.90;;;;;;5096618;28;20540;-66
2023/06/16 11:09:38;;;;;;;5.47;5.03;;;19.50;99.90;;;;;;5095750;28;20518;-66
2023/06/16 11:12:06;;;;;;;5.20;4.80;;;19.50;99.90;;;;;;5096144;28;20488;-66
2023/06/16 11:14:34;;;;;;;5.53;5.03;;;19.60;99.90;;;;;;5096147;28;20457;-66
2023/06/16 11:17:02;;;;;;;5.73;5.20;;;19.70;1.00;;;;;;5096546;28;20458;-66
2023/06/16 11:19:31;;;;;;;5.80;5.20;;;19.70;1.00;;;;;;5096206;28;20910;-66
2023/06/16 11:22:01;;;;;;;6.17;5.17;;;19.80;99.90;;;;;;5096301;28;20810;-66
2023/06/16 11:24:32;;;;;;;16.87;6.50;;;19.70;99.90;;;;;;5096039;28;20457;-66
2023/06/16 11:27:00;;;;;;;7.80;4.83;;;19.80;99.90;;;;;;5095919;28;20438;-66
2023/06/16 11:29:29;;;;;;;10.93;5.07;;;20.10;99.90;;;;;;5095889;28;20482;-66
2023/06/16 11:31:59;;;;;;;9.53;5.70;;;20.30;99.90;;;;;;5096023;28;20453;-66
2023/06/16 11:34:26;;;;;;;16.77;6.03;;;20.50;99.90;;;;;;5096043;28;20548;-65
2023/06/16 11:36:55;;;;;;;5.10;4.60;;;20.60;99.90;;;;;;5095689;28;20601;-66
2023/06/16 11:39:22;;;;;;;5.50;4.80;;;20.90;99.90;;;;;;5095613;28;20457;-66
2023/06/16 11:41:55;;;;;;;7.60;5.60;;;21.30;99.90;;;;;;5095759;28;20488;-66
2023/06/16 11:44:22;;;;;;;9.00;5.37;;;21.50;35.40;;;;;;5095689;28;20449;-66
2023/06/16 11:46:49;;;;;;;7.67;4.50;;;21.50;15.90;;;;;;5095574;28;20469;-65
2023/06/16 11:49:16;;;;;;;5.67;5.17;;;21.20;22.60;;;;;;5095576;28;20486;-65
2023/06/16 11:51:44;;;;;;;6.00;5.27;;;20.90;76.80;;;;;;5096050;28;20547;-66
2023/06/16 11:54:12;;;;;;;6.83;5.37;;;20.30;99.90;;;;;;5095509;28;20468;-66
2023/06/16 11:56:40;;;;;;;7.63;6.37;;;20.10;99.90;;;;;;5095620;28;20853;-65
2023/06/16 11:59:09;;;;;;;7.17;6.50;;;19.70;99.90;;;;;;5095377;28;20913;-65
2023/06/16 12:01:36;;;;;;;6.47;5.87;;;19.40;99.90;;;;;;5095647;28;20492;-65
2023/06/16 12:04:03;;;;;;;6.23;5.63;;;19.30;1.00;;;;;;5095212;28;20453;-66
2023/06/16 12:06:31;;;;;;;9.93;6.17;;;19.20;1.00;;;;;;5095552;28;20793;-65
2023/06/16 12:08:58;;;;;;;6.60;6.00;;;19.00;1.00;;;;;;5095587;28;20566;-66
2023/06/16 12:11:28;;;;;;;6.73;6.13;;;19.10;1.00;;;;;;5096196;28;20453;-68
2023/06/16 12:13:55;;;;;;;6.60;6.00;;;19.10;1.00;;;;;;5096439;28;20477;-69
2023/06/16 12:16:22;;;;;;;7.20;5.83;;;19.20;1.00;;;;;;5095849;28;20481;-69
2023/06/16 12:18:51;;;;;;;7.80;6.00;;;19.30;1.00;;;;;;5096334;28;20463;-68
2023/06/16 12:21:19;;;;;;;6.57;5.37;;;19.30;1.00;;;;;;5096217;28;20477;-68
2023/06/16 12:23:52;;;;;;;6.00;5.40;;;19.40;1.00;;;;;;5097105;28;20540;-68
2023/06/16 12:26:32;;;;;;;6.70;6.10;;;19.40;1.00;;;;;;5097300;28;20463;-68
2023/06/16 12:29:01;;;;;;;9.00;5.30;;;19.30;1.00;;;;;;5098375;28;20495;-68
2023/06/16 12:31:29;;;;;;;6.33;5.20;;;19.20;1.00;;;;;;5099243;28;20532;-68
2023/06/16 12:33:57;;;;;;;5.93;5.43;;;19.20;1.00;;;;;;5097964;28;20469;-68
2023/06/16 12:36:24;;;;;;;5.50;4.90;;;19.20;1.00;;;;;;5098683;28;20925;-68
2023/06/16 12:38:53;;;;;;;7.10;5.53;;;19.20;1.00;;;;;;5099118;28;20536;-67
2023/06/16 12:41:20;;;;;;;6.27;4.90;;;19.20;99.90;;;;;;5098588;28;20473;-67
2023/06/16 12:43:50;;;;;;;8.27;6.13;;;19.10;1.00;;;;;;5098376;28;20540;-68
2023/06/16 12:46:18;;;;;;;8.00;5.80;;;19.10;1.00;;;;;;5097470;28;20897;-67
2023/06/16 12:48:46;;;;;;;5.87;5.37;;;19.10;1.00;;;;;;5097486;28;20453;-69
2023/06/16 12:51:13;;;;;;;5.63;4.73;;;19.10;1.00;;;;;;5097565;28;20464;-67
2023/06/16 12:53:42;;;;;;;7.43;5.30;;;19.00;1.00;;;;;;5097279;28;20857;-68